sensor_id;sensor_type;location;lat;lon;timestamp;temperature;humidity
6293;DHT22;3179;54.350;10.102;2022-10-31T00:00:05;14.80;99.90
6293;DHT22;3179;54.350;10.102;2022-10-31T00:02:31;14.80;99.90
6293;DHT22;3179;54.350;10.102;2022-10-31T00:04:58;14.80;99.90
6293;DHT22;3179;54.350;10.102;2022-10-31T00:07:26;14.80;99.90
6293;DHT22;3179;54.350;10.102;2022-10-31T00:09:53;14.80;99.90
6293;DHT22;3179;54.350;10.102;2022-10-31T00:12:20;14.80;99.90
6293;DHT22;3179;54.350;10.102;2022-10-31T00:14:46;14.80;99.90
6293;DHT22;3179;54.350;10.102;2022-10-31T00:17:13;14.70;99.90
6293;DHT22;3179;54.350;10.102;2022-10-31T00:19:40;14.70;99.90
6293;DHT22;3179;54.350;10.102;2022-10-31T00:22:06;14.80;99.90
6293;DHT22;3179;54.350;10.102;2022-10-31T00:24:35;14.80;99.90
6293;DHT22;3179;54.350;10.102;2022-10-31T00:27:01;14.70;99.90
6293;DHT22;3179;54.350;10.102;2022-10-31T00:29:28;14.80;99.90
6293;DHT22;3179;54.350;10.102;2022-10-31T00:31:55;14.70;99.90
6293;DHT22;3179;54.350;10.102;2022-10-31T00:34:21;14.70;99.90
6293;DHT22;3179;54.350;10.102;2022-10-31T00:36:49;14.70;99.90
6293;DHT22;3179;54.350;10.102;2022-10-31T00:39:16;14.70;99.90
6293;DHT22;3179;54.350;10.102;2022-10-31T00:41:44;14.70;99.90
6293;DHT22;3179;54.350;10.102;2022-10-31T00:44:10;14.70;99.90
6293;DHT22;3179;54.350;10.102;2022-10-31T00:46:37;14.70;99.90
6293;DHT22;3179;54.350;10.102;2022-10-31T00:49:04;14.70;99.90
6293;DHT22;3179;54.350;10.102;2022-10-31T00:51:31;14.70;99.90
6293;DHT22;3179;54.350;10.102;2022-10-31T00:53:57;14.70;99.90
6293;DHT22;3179;54.350;10.102;2022-10-31T00:56:24;14.70;99.90
6293;DHT22;3179;54.350;10.102;2022-10-31T00:58:52;14.70;99.90
6293;DHT22;3179;54.350;10.102;2022-10-31T01:01:19;14.70;99.90
6293;DHT22;3179;54.350;10.102;2022-10-31T01:03:45;14.70;99.90
6293;DHT22;3179;54.350;10.102;2022-10-31T01:06:13;14.60;99.90
6293;DHT22;3179;54.350;10.102;2022-10-31T01:08:40;14.70;99.90
6293;DHT22;3179;54.350;10.102;2022-10-31T01:11:10;14.70;99.90
6293;DHT22;3179;54.350;10.102;2022-10-31T01:13:37;14.70;99.90
6293;DHT22;3179;54.350;10.102;2022-10-31T01:16:07;14.60;99.90
6293;DHT22;3179;54.350;10.102;2022-10-31T01:18:34;14.60;99.90
6293;DHT22;3179;54.350;10.102;2022-10-31T01:21:03;14.60;99.90
6293;DHT22;3179;54.350;10.102;2022-10-31T01:23:31;14.60;99.90
6293;DHT22;3179;54.350;10.102;2022-10-31T01:26:03;14.60;99.90
6293;DHT22;3179;54.350;10.102;2022-10-31T01:28:30;14.60;99.90
6293;DHT22;3179;54.350;10.102;2022-10-31T01:31:00;14.60;99.90
6293;DHT22;3179;54.350;10.102;2022-10-31T01:33:28;14.60;99.90
6293;DHT22;3179;54.350;10.102;2022-10-31T01:35:55;14.60;99.90
6293;DHT22;3179;54.350;10.102;2022-10-31T01:38:22;14.60;99.90
6293;DHT22;3179;54.350;10.102;2022-10-31T01:40:49;14.60;99.90
6293;DHT22;3179;54.350;10.102;2022-10-31T01:43:16;14.60;99.90
6293;DHT22;3179;54.350;10.102;2022-10-31T01:45:46;14.60;99.90
6293;DHT22;3179;54.350;10.102;2022-10-31T01:48:18;14.50;99.90
6293;DHT22;3179;54.350;10.102;2022-10-31T01:50:48;14.50;99.90
6293;DHT22;3179;54.350;10.102;2022-10-31T01:53:17;14.50;99.90
6293;DHT22;3179;54.350;10.102;2022-10-31T01:55:45;14.50;99.90
6293;DHT22;3179;54.350;10.102;2022-10-31T01:58:14;14.50;99.90
6293;DHT22;3179;54.350;10.102;2022-10-31T02:00:46;14.50;99.90
6293;DHT22;3179;54.350;10.102;2022-10-31T02:03:15;14.50;99.90
6293;DHT22;3179;54.350;10.102;2022-10-31T02:05:43;14.60;99.90
6293;DHT22;3179;54.350;10.102;2022-10-31T02:08:13;14.60;99.90
6293;DHT22;3179;54.350;10.102;2022-10-31T02:10:43;14.60;99.90
6293;DHT22;3179;54.350;10.102;2022-10-31T02:13:10;14.60;99.90
6293;DHT22;3179;54.350;10.102;2022-10-31T02:15:39;14.70;99.90
6293;DHT22;3179;54.350;10.102;2022-10-31T02:18:07;14.70;99.90
6293;DHT22;3179;54.350;10.102;2022-10-31T02:20:42;14.70;99.90
6293;DHT22;3179;54.350;10.102;2022-10-31T02:23:27;14.70;99.90
6293;DHT22;3179;54.350;10.102;2022-10-31T02:29:10;14.80;99.90
6293;DHT22;3179;54.350;10.102;2022-10-31T02:31:46;14.80;99.90
6293;DHT22;3179;54.350;10.102;2022-10-31T02:34:19;14.80;99.90
6293;DHT22;3179;54.350;10.102;2022-10-31T02:36:53;14.80;99.90
6293;DHT22;3179;54.350;10.102;2022-10-31T02:39:25;14.90;99.90
6293;DHT22;3179;54.350;10.102;2022-10-31T02:42:02;14.90;99.90
6293;DHT22;3179;54.350;10.102;2022-10-31T02:44:36;14.90;99.90
6293;DHT22;3179;54.350;10.102;2022-10-31T02:47:09;14.90;99.90
6293;DHT22;3179;54.350;10.102;2022-10-31T02:49:42;14.90;99.90
6293;DHT22;3179;54.350;10.102;2022-10-31T02:52:17;14.90;99.90
6293;DHT22;3179;54.350;10.102;2022-10-31T02:54:45;14.90;99.90
6293;DHT22;3179;54.350;10.102;2022-10-31T02:57:13;14.90;99.90
6293;DHT22;3179;54.350;10.102;2022-10-31T02:59:44;14.90;99.90
6293;DHT22;3179;54.350;10.102;2022-10-31T03:02:27;14.90;99.90
6293;DHT22;3179;54.350;10.102;2022-10-31T03:05:34;15.00;99.90
6293;DHT22;3179;54.350;10.102;2022-10-31T03:08:08;14.90;99.90
6293;DHT22;3179;54.350;10.102;2022-10-31T03:10:41;14.90;99.90
6293;DHT22;3179;54.350;10.102;2022-10-31T03:13:13;14.90;99.90
6293;DHT22;3179;54.350;10.102;2022-10-31T03:15:45;15.00;99.90
6293;DHT22;3179;54.350;10.102;2022-10-31T03:18:21;14.90;99.90
6293;DHT22;3179;54.350;10.102;2022-10-31T03:20:54;14.90;99.90
6293;DHT22;3179;54.350;10.102;2022-10-31T03:23:24;15.00;99.90
6293;DHT22;3179;54.350;10.102;2022-10-31T03:25:53;15.00;99.90
6293;DHT22;3179;54.350;10.102;2022-10-31T03:28:25;15.00;99.90
6293;DHT22;3179;54.350;10.102;2022-10-31T03:30:54;15.00;99.90
6293;DHT22;3179;54.350;10.102;2022-10-31T03:33:29;15.00;99.90
6293;DHT22;3179;54.350;10.102;2022-10-31T03:35:59;15.00;99.90
6293;DHT22;3179;54.350;10.102;2022-10-31T03:38:29;15.00;99.90
6293;DHT22;3179;54.350;10.102;2022-10-31T03:40:58;15.00;99.90
6293;DHT22;3179;54.350;10.102;2022-10-31T03:43:29;15.00;99.90
6293;DHT22;3179;54.350;10.102;2022-10-31T03:45:56;15.00;99.90
6293;DHT22;3179;54.350;10.102;2022-10-31T03:48:26;15.00;99.90
6293;DHT22;3179;54.350;10.102;2022-10-31T03:51:02;15.00;99.90
6293;DHT22;3179;54.350;10.102;2022-10-31T03:53:34;15.00;99.90
6293;DHT22;3179;54.350;10.102;2022-10-31T03:56:09;15.00;99.90
6293;DHT22;3179;54.350;10.102;2022-10-31T03:58:38;15.00;99.90
6293;DHT22;3179;54.350;10.102;2022-10-31T04:01:06;15.00;99.90
6293;DHT22;3179;54.350;10.102;2022-10-31T04:03:37;15.00;99.90
6293;DHT22;3179;54.350;10.102;2022-10-31T04:06:08;15.00;99.90
6293;DHT22;3179;54.350;10.102;2022-10-31T04:08:40;15.00;99.90
6293;DHT22;3179;54.350;10.102;2022-10-31T04:11:09;15.00;99.90
6293;DHT22;3179;54.350;10.102;2022-10-31T04:13:39;15.00;99.90
6293;DHT22;3179;54.350;10.102;2022-10-31T04:16:08;15.00;99.90
6293;DHT22;3179;54.350;10.102;2022-10-31T04:18:37;15.00;99.90
6293;DHT22;3179;54.350;10.102;2022-10-31T04:21:06;15.00;99.90
6293;DHT22;3179;54.350;10.102;2022-10-31T04:23:34;15.00;99.90
6293;DHT22;3179;54.350;10.102;2022-10-31T04:26:01;15.00;99.90
6293;DHT22;3179;54.350;10.102;2022-10-31T04:28:28;15.00;99.90
6293;DHT22;3179;54.350;10.102;2022-10-31T04:30:55;15.00;99.90
6293;DHT22;3179;54.350;10.102;2022-10-31T04:33:28;15.00;99.90
6293;DHT22;3179;54.350;10.102;2022-10-31T04:35:56;15.00;99.90
6293;DHT22;3179;54.350;10.102;2022-10-31T04:38:23;15.00;99.90
6293;DHT22;3179;54.350;10.102;2022-10-31T04:40:50;15.00;99.90
6293;DHT22;3179;54.350;10.102;2022-10-31T04:43:17;15.00;99.90
6293;DHT22;3179;54.350;10.102;2022-10-31T04:45:44;15.00;99.90
6293;DHT22;3179;54.350;10.102;2022-10-31T04:48:11;15.00;99.90
6293;DHT22;3179;54.350;10.102;2022-10-31T04:50:38;15.00;99.90
6293;DHT22;3179;54.350;10.102;2022-10-31T04:53:06;15.00;99.90
6293;DHT22;3179;54.350;10.102;2022-10-31T04:55:32;15.00;99.90
6293;DHT22;3179;54.350;10.102;2022-10-31T04:57:59;15.00;99.90
6293;DHT22;3179;54.350;10.102;2022-10-31T05:00:26;15.00;99.90
6293;DHT22;3179;54.350;10.102;2022-10-31T05:02:54;15.00;99.90
6293;DHT22;3179;54.350;10.102;2022-10-31T05:05:23;15.00;99.90
6293;DHT22;3179;54.350;10.102;2022-10-31T05:07:51;15.00;99.90
6293;DHT22;3179;54.350;10.102;2022-10-31T05:10:21;15.00;99.90
6293;DHT22;3179;54.350;10.102;2022-10-31T05:12:49;15.00;99.90
6293;DHT22;3179;54.350;10.102;2022-10-31T05:15:18;15.00;99.90
6293;DHT22;3179;54.350;10.102;2022-10-31T05:17:45;15.00;99.90
6293;DHT22;3179;54.350;10.102;2022-10-31T05:20:14;15.00;99.90
6293;DHT22;3179;54.350;10.102;2022-10-31T05:22:44;15.00;99.90
6293;DHT22;3179;54.350;10.102;2022-10-31T05:25:12;15.00;99.90
6293;DHT22;3179;54.350;10.102;2022-10-31T05:27:41;15.00;99.90
6293;DHT22;3179;54.350;10.102;2022-10-31T05:30:09;15.00;99.90
6293;DHT22;3179;54.350;10.102;2022-10-31T05:32:37;15.00;99.90
6293;DHT22;3179;54.350;10.102;2022-10-31T05:35:05;15.00;99.90
6293;DHT22;3179;54.350;10.102;2022-10-31T05:37:33;15.00;99.90
6293;DHT22;3179;54.350;10.102;2022-10-31T05:40:00;15.00;99.90
6293;DHT22;3179;54.350;10.102;2022-10-31T05:42:27;15.00;99.90
6293;DHT22;3179;54.350;10.102;2022-10-31T05:44:55;15.00;99.90
6293;DHT22;3179;54.350;10.102;2022-10-31T05:47:22;15.00;99.90
6293;DHT22;3179;54.350;10.102;2022-10-31T05:49:49;15.00;99.90
6293;DHT22;3179;54.350;10.102;2022-10-31T05:52:16;15.00;99.90
6293;DHT22;3179;54.350;10.102;2022-10-31T05:54:42;15.00;99.90
6293;DHT22;3179;54.350;10.102;2022-10-31T05:57:09;15.00;99.90
6293;DHT22;3179;54.350;10.102;2022-10-31T05:59:37;15.00;99.90
6293;DHT22;3179;54.350;10.102;2022-10-31T06:02:05;15.00;99.90
6293;DHT22;3179;54.350;10.102;2022-10-31T06:04:32;15.00;99.90
6293;DHT22;3179;54.350;10.102;2022-10-31T06:06:59;15.00;99.90
6293;DHT22;3179;54.350;10.102;2022-10-31T06:09:26;15.00;99.90
6293;DHT22;3179;54.350;10.102;2022-10-31T06:11:53;15.00;99.90
6293;DHT22;3179;54.350;10.102;2022-10-31T06:14:19;15.00;99.90
6293;DHT22;3179;54.350;10.102;2022-10-31T06:16:46;15.00;99.90
6293;DHT22;3179;54.350;10.102;2022-10-31T06:19:14;15.00;99.90
6293;DHT22;3179;54.350;10.102;2022-10-31T06:21:41;15.00;99.90
6293;DHT22;3179;54.350;10.102;2022-10-31T06:24:08;15.00;99.90
6293;DHT22;3179;54.350;10.102;2022-10-31T06:26:34;15.10;99.90
6293;DHT22;3179;54.350;10.102;2022-10-31T06:29:01;15.00;99.90
6293;DHT22;3179;54.350;10.102;2022-10-31T06:31:28;15.00;99.90
6293;DHT22;3179;54.350;10.102;2022-10-31T06:33:55;15.10;99.90
6293;DHT22;3179;54.350;10.102;2022-10-31T06:36:23;15.10;99.90
6293;DHT22;3179;54.350;10.102;2022-10-31T06:38:49;15.00;99.90
6293;DHT22;3179;54.350;10.102;2022-10-31T06:41:16;15.00;99.90
6293;DHT22;3179;54.350;10.102;2022-10-31T06:43:46;15.10;99.90
6293;DHT22;3179;54.350;10.102;2022-10-31T06:46:12;15.10;99.90
6293;DHT22;3179;54.350;10.102;2022-10-31T06:48:40;15.10;99.90
6293;DHT22;3179;54.350;10.102;2022-10-31T06:51:07;15.10;99.90
6293;DHT22;3179;54.350;10.102;2022-10-31T06:53:35;15.00;99.90
6293;DHT22;3179;54.350;10.102;2022-10-31T06:56:02;15.10;99.90
6293;DHT22;3179;54.350;10.102;2022-10-31T06:58:29;15.10;99.90
6293;DHT22;3179;54.350;10.102;2022-10-31T07:00:58;15.10;99.90
6293;DHT22;3179;54.350;10.102;2022-10-31T07:03:25;15.10;99.90
6293;DHT22;3179;54.350;10.102;2022-10-31T07:05:54;15.10;99.90
6293;DHT22;3179;54.350;10.102;2022-10-31T07:08:21;15.10;99.90
6293;DHT22;3179;54.350;10.102;2022-10-31T07:10:53;15.10;99.90
6293;DHT22;3179;54.350;10.102;2022-10-31T07:13:21;15.10;99.90
6293;DHT22;3179;54.350;10.102;2022-10-31T07:15:51;15.10;99.90
6293;DHT22;3179;54.350;10.102;2022-10-31T07:18:19;15.00;99.90
6293;DHT22;3179;54.350;10.102;2022-10-31T07:20:46;15.00;99.90
6293;DHT22;3179;54.350;10.102;2022-10-31T07:23:13;15.10;99.90
6293;DHT22;3179;54.350;10.102;2022-10-31T07:25:40;15.00;99.90
6293;DHT22;3179;54.350;10.102;2022-10-31T07:28:08;15.00;99.90
6293;DHT22;3179;54.350;10.102;2022-10-31T07:30:35;15.10;99.90
6293;DHT22;3179;54.350;10.102;2022-10-31T07:33:02;15.10;99.90
6293;DHT22;3179;54.350;10.102;2022-10-31T07:35:29;15.20;99.90
6293;DHT22;3179;54.350;10.102;2022-10-31T07:37:57;15.10;99.90
6293;DHT22;3179;54.350;10.102;2022-10-31T07:40:24;15.10;99.90
6293;DHT22;3179;54.350;10.102;2022-10-31T07:42:52;15.10;99.90
6293;DHT22;3179;54.350;10.102;2022-10-31T07:45:21;15.20;99.90
6293;DHT22;3179;54.350;10.102;2022-10-31T07:47:49;15.20;99.90
6293;DHT22;3179;54.350;10.102;2022-10-31T07:50:18;15.20;99.90
6293;DHT22;3179;54.350;10.102;2022-10-31T07:52:57;15.10;99.90
6293;DHT22;3179;54.350;10.102;2022-10-31T07:55:24;15.20;99.90
6293;DHT22;3179;54.350;10.102;2022-10-31T07:57:56;15.20;99.90
6293;DHT22;3179;54.350;10.102;2022-10-31T08:00:26;15.20;99.90
6293;DHT22;3179;54.350;10.102;2022-10-31T08:02:57;15.20;99.90
6293;DHT22;3179;54.350;10.102;2022-10-31T08:05:24;15.20;99.90
6293;DHT22;3179;54.350;10.102;2022-10-31T08:07:51;15.20;99.90
6293;DHT22;3179;54.350;10.102;2022-10-31T08:10:18;15.20;99.90
6293;DHT22;3179;54.350;10.102;2022-10-31T08:12:45;15.20;99.90
6293;DHT22;3179;54.350;10.102;2022-10-31T08:15:12;15.30;99.90
6293;DHT22;3179;54.350;10.102;2022-10-31T08:17:40;15.30;99.90
6293;DHT22;3179;54.350;10.102;2022-10-31T08:20:07;15.30;99.90
6293;DHT22;3179;54.350;10.102;2022-10-31T08:22:34;15.30;99.90
6293;DHT22;3179;54.350;10.102;2022-10-31T08:25:01;15.30;99.90
6293;DHT22;3179;54.350;10.102;2022-10-31T08:27:27;15.30;99.90
6293;DHT22;3179;54.350;10.102;2022-10-31T08:29:54;15.30;99.90
6293;DHT22;3179;54.350;10.102;2022-10-31T08:32:21;15.30;99.90
6293;DHT22;3179;54.350;10.102;2022-10-31T08:34:49;15.30;99.90
6293;DHT22;3179;54.350;10.102;2022-10-31T08:37:16;15.30;99.90
6293;DHT22;3179;54.350;10.102;2022-10-31T08:39:45;15.20;99.90
6293;DHT22;3179;54.350;10.102;2022-10-31T08:42:12;15.20;99.90
6293;DHT22;3179;54.350;10.102;2022-10-31T08:44:39;15.30;99.90
6293;DHT22;3179;54.350;10.102;2022-10-31T08:47:06;15.30;99.90
6293;DHT22;3179;54.350;10.102;2022-10-31T08:49:32;15.30;99.90
6293;DHT22;3179;54.350;10.102;2022-10-31T08:52:01;15.30;99.90
6293;DHT22;3179;54.350;10.102;2022-10-31T08:54:27;15.30;99.90
6293;DHT22;3179;54.350;10.102;2022-10-31T08:56:54;15.30;99.90
6293;DHT22;3179;54.350;10.102;2022-10-31T08:59:22;15.30;99.90
6293;DHT22;3179;54.350;10.102;2022-10-31T09:01:48;15.40;99.90
6293;DHT22;3179;54.350;10.102;2022-10-31T09:04:15;15.40;99.90
6293;DHT22;3179;54.350;10.102;2022-10-31T09:06:42;15.40;99.90
6293;DHT22;3179;54.350;10.102;2022-10-31T09:09:10;15.40;99.90
6293;DHT22;3179;54.350;10.102;2022-10-31T09:11:37;15.40;99.90
6293;DHT22;3179;54.350;10.102;2022-10-31T09:14:04;15.40;99.90
6293;DHT22;3179;54.350;10.102;2022-10-31T09:16:31;15.50;99.90
6293;DHT22;3179;54.350;10.102;2022-10-31T09:18:58;15.50;99.90
6293;DHT22;3179;54.350;10.102;2022-10-31T09:21:25;15.50;99.90
6293;DHT22;3179;54.350;10.102;2022-10-31T09:23:52;15.50;99.90
6293;DHT22;3179;54.350;10.102;2022-10-31T09:26:20;15.50;99.90
6293;DHT22;3179;54.350;10.102;2022-10-31T09:28:47;15.50;99.90
6293;DHT22;3179;54.350;10.102;2022-10-31T09:31:14;15.50;99.90
6293;DHT22;3179;54.350;10.102;2022-10-31T09:33:40;15.50;99.90
6293;DHT22;3179;54.350;10.102;2022-10-31T09:36:08;15.50;99.90
6293;DHT22;3179;54.350;10.102;2022-10-31T09:38:35;15.60;99.90
6293;DHT22;3179;54.350;10.102;2022-10-31T09:41:07;15.60;99.90
6293;DHT22;3179;54.350;10.102;2022-10-31T09:50:26;15.60;99.90
6293;DHT22;3179;54.350;10.102;2022-10-31T09:52:58;15.70;99.90
6293;DHT22;3179;54.350;10.102;2022-10-31T09:55:34;15.70;99.90
6293;DHT22;3179;54.350;10.102;2022-10-31T09:58:02;15.70;99.90
6293;DHT22;3179;54.350;10.102;2022-10-31T10:00:29;15.70;99.90
6293;DHT22;3179;54.350;10.102;2022-10-31T10:03:01;15.70;99.90
6293;DHT22;3179;54.350;10.102;2022-10-31T10:05:38;15.70;99.90
6293;DHT22;3179;54.350;10.102;2022-10-31T10:08:10;15.70;99.90
6293;DHT22;3179;54.350;10.102;2022-10-31T10:10:48;15.70;99.90
6293;DHT22;3179;54.350;10.102;2022-10-31T10:13:42;15.80;99.90
6293;DHT22;3179;54.350;10.102;2022-10-31T10:16:20;15.90;99.90
6293;DHT22;3179;54.350;10.102;2022-10-31T10:19:00;15.90;99.90
6293;DHT22;3179;54.350;10.102;2022-10-31T10:21:39;15.90;99.90
6293;DHT22;3179;54.350;10.102;2022-10-31T10:24:22;16.00;99.90
6293;DHT22;3179;54.350;10.102;2022-10-31T10:26:59;16.00;99.90
6293;DHT22;3179;54.350;10.102;2022-10-31T10:29:37;16.00;99.90
6293;DHT22;3179;54.350;10.102;2022-10-31T10:32:12;16.10;99.90
6293;DHT22;3179;54.350;10.102;2022-10-31T10:34:46;16.20;99.90
6293;DHT22;3179;54.350;10.102;2022-10-31T10:37:26;16.30;99.90
6293;DHT22;3179;54.350;10.102;2022-10-31T10:40:01;16.40;99.90
6293;DHT22;3179;54.350;10.102;2022-10-31T10:42:34;16.50;99.90
6293;DHT22;3179;54.350;10.102;2022-10-31T10:45:30;16.50;99.90
6293;DHT22;3179;54.350;10.102;2022-10-31T10:48:19;16.60;99.90
6293;DHT22;3179;54.350;10.102;2022-10-31T10:50:51;16.60;99.90
6293;DHT22;3179;54.350;10.102;2022-10-31T10:53:30;16.60;99.90
6293;DHT22;3179;54.350;10.102;2022-10-31T10:56:13;16.60;99.90
6293;DHT22;3179;54.350;10.102;2022-10-31T10:58:42;16.60;99.90
6293;DHT22;3179;54.350;10.102;2022-10-31T11:01:12;16.60;99.90
6293;DHT22;3179;54.350;10.102;2022-10-31T11:03:39;16.60;99.90
6293;DHT22;3179;54.350;10.102;2022-10-31T11:06:17;16.50;99.90
6293;DHT22;3179;54.350;10.102;2022-10-31T11:08:48;16.50;99.90
6293;DHT22;3179;54.350;10.102;2022-10-31T11:11:23;16.50;99.90
6293;DHT22;3179;54.350;10.102;2022-10-31T11:13:57;16.50;99.90
6293;DHT22;3179;54.350;10.102;2022-10-31T11:16:30;16.40;99.90
6293;DHT22;3179;54.350;10.102;2022-10-31T11:19:07;16.40;99.90
6293;DHT22;3179;54.350;10.102;2022-10-31T11:21:35;16.40;99.90
6293;DHT22;3179;54.350;10.102;2022-10-31T11:24:07;16.40;99.90
6293;DHT22;3179;54.350;10.102;2022-10-31T11:26:40;16.40;99.90
6293;DHT22;3179;54.350;10.102;2022-10-31T11:29:13;16.40;99.90
6293;DHT22;3179;54.350;10.102;2022-10-31T11:31:41;16.50;99.90
6293;DHT22;3179;54.350;10.102;2022-10-31T11:34:15;16.50;99.90
6293;DHT22;3179;54.350;10.102;2022-10-31T11:36:44;16.50;99.90
6293;DHT22;3179;54.350;10.102;2022-10-31T11:39:19;16.60;99.90
6293;DHT22;3179;54.350;10.102;2022-10-31T11:41:47;16.60;99.90
6293;DHT22;3179;54.350;10.102;2022-10-31T11:44:17;16.60;99.90
6293;DHT22;3179;54.350;10.102;2022-10-31T11:46:47;16.60;99.90
6293;DHT22;3179;54.350;10.102;2022-10-31T11:49:16;16.60;99.90
6293;DHT22;3179;54.350;10.102;2022-10-31T11:51:49;16.70;99.90
6293;DHT22;3179;54.350;10.102;2022-10-31T11:54:22;16.70;99.90
6293;DHT22;3179;54.350;10.102;2022-10-31T11:56:49;16.70;99.90
6293;DHT22;3179;54.350;10.102;2022-10-31T11:59:26;16.80;99.90
6293;DHT22;3179;54.350;10.102;2022-10-31T12:01:54;16.80;99.90
6293;DHT22;3179;54.350;10.102;2022-10-31T12:04:33;16.80;99.90
6293;DHT22;3179;54.350;10.102;2022-10-31T12:07:01;16.80;99.90
6293;DHT22;3179;54.350;10.102;2022-10-31T12:09:32;16.80;99.90
6293;DHT22;3179;54.350;10.102;2022-10-31T12:12:14;16.80;99.90
6293;DHT22;3179;54.350;10.102;2022-10-31T12:14:51;16.80;99.90
6293;DHT22;3179;54.350;10.102;2022-10-31T12:17:19;16.80;99.90
6293;DHT22;3179;54.350;10.102;2022-10-31T12:19:59;16.80;99.90
6293;DHT22;3179;54.350;10.102;2022-10-31T12:22:36;16.80;99.90
6293;DHT22;3179;54.350;10.102;2022-10-31T12:25:26;16.90;99.90
6293;DHT22;3179;54.350;10.102;2022-10-31T12:30:55;17.10;99.90
6293;DHT22;3179;54.350;10.102;2022-10-31T12:33:40;17.10;99.90
6293;DHT22;3179;54.350;10.102;2022-10-31T12:36:32;17.10;99.90
6293;DHT22;3179;54.350;10.102;2022-10-31T12:39:23;17.10;99.90
6293;DHT22;3179;54.350;10.102;2022-10-31T12:41:57;17.00;99.90
6293;DHT22;3179;54.350;10.102;2022-10-31T12:44:52;17.00;99.90
6293;DHT22;3179;54.350;10.102;2022-10-31T12:47:40;17.00;99.90
6293;DHT22;3179;54.350;10.102;2022-10-31T12:50:31;17.00;99.90
6293;DHT22;3179;54.350;10.102;2022-10-31T12:53:11;17.00;99.90
6293;DHT22;3179;54.350;10.102;2022-10-31T12:55:53;17.00;99.90
6293;DHT22;3179;54.350;10.102;2022-10-31T12:58:26;17.00;99.90
6293;DHT22;3179;54.350;10.102;2022-10-31T13:01:05;17.10;99.90
6293;DHT22;3179;54.350;10.102;2022-10-31T13:03:38;17.10;99.90
6293;DHT22;3179;54.350;10.102;2022-10-31T13:08:53;17.10;99.90
6293;DHT22;3179;54.350;10.102;2022-10-31T13:11:24;17.00;99.90
6293;DHT22;3179;54.350;10.102;2022-10-31T13:13:59;17.00;99.90
6293;DHT22;3179;54.350;10.102;2022-10-31T13:16:30;17.00;99.90
6293;DHT22;3179;54.350;10.102;2022-10-31T13:19:03;17.00;99.90
6293;DHT22;3179;54.350;10.102;2022-10-31T13:21:36;17.00;99.90
6293;DHT22;3179;54.350;10.102;2022-10-31T13:24:07;17.00;99.90
6293;DHT22;3179;54.350;10.102;2022-10-31T13:26:37;17.00;99.90
6293;DHT22;3179;54.350;10.102;2022-10-31T13:29:14;17.00;99.90
6293;DHT22;3179;54.350;10.102;2022-10-31T13:31:43;17.00;99.90
6293;DHT22;3179;54.350;10.102;2022-10-31T13:34:19;17.00;99.90
6293;DHT22;3179;54.350;10.102;2022-10-31T13:36:55;17.00;99.90
6293;DHT22;3179;54.350;10.102;2022-10-31T13:39:31;17.00;99.90
6293;DHT22;3179;54.350;10.102;2022-10-31T13:42:02;17.00;99.90
6293;DHT22;3179;54.350;10.102;2022-10-31T13:44:35;17.00;99.90
6293;DHT22;3179;54.350;10.102;2022-10-31T13:47:03;17.00;99.90
6293;DHT22;3179;54.350;10.102;2022-10-31T13:49:38;17.00;99.90
6293;DHT22;3179;54.350;10.102;2022-10-31T13:52:13;17.00;99.90
6293;DHT22;3179;54.350;10.102;2022-10-31T13:54:42;17.00;99.90
6293;DHT22;3179;54.350;10.102;2022-10-31T13:57:16;17.00;99.90
6293;DHT22;3179;54.350;10.102;2022-10-31T13:59:49;17.00;99.90
6293;DHT22;3179;54.350;10.102;2022-10-31T14:02:18;17.00;99.90
6293;DHT22;3179;54.350;10.102;2022-10-31T14:04:48;16.90;99.90
6293;DHT22;3179;54.350;10.102;2022-10-31T14:07:20;16.90;99.90
6293;DHT22;3179;54.350;10.102;2022-10-31T14:09:55;16.90;99.90
6293;DHT22;3179;54.350;10.102;2022-10-31T14:12:26;16.90;99.90
6293;DHT22;3179;54.350;10.102;2022-10-31T14:14:59;16.90;99.90
6293;DHT22;3179;54.350;10.102;2022-10-31T14:17:30;16.90;99.90
6293;DHT22;3179;54.350;10.102;2022-10-31T14:20:02;16.80;99.90
6293;DHT22;3179;54.350;10.102;2022-10-31T14:22:30;16.80;99.90
6293;DHT22;3179;54.350;10.102;2022-10-31T14:24:57;16.80;99.90
6293;DHT22;3179;54.350;10.102;2022-10-31T14:27:46;16.80;99.90
6293;DHT22;3179;54.350;10.102;2022-10-31T14:30:18;16.80;99.90
6293;DHT22;3179;54.350;10.102;2022-10-31T14:32:50;16.70;99.90
6293;DHT22;3179;54.350;10.102;2022-10-31T14:35:17;16.70;99.90
6293;DHT22;3179;54.350;10.102;2022-10-31T14:40:59;16.60;99.90
6293;DHT22;3179;54.350;10.102;2022-10-31T14:46:32;16.60;99.90
6293;DHT22;3179;54.350;10.102;2022-10-31T14:49:18;16.60;99.90
6293;DHT22;3179;54.350;10.102;2022-10-31T14:51:48;16.50;99.90
6293;DHT22;3179;54.350;10.102;2022-10-31T14:54:21;16.50;99.90
6293;DHT22;3179;54.350;10.102;2022-10-31T14:56:53;16.50;99.90
6293;DHT22;3179;54.350;10.102;2022-10-31T14:59:23;16.50;99.90
6293;DHT22;3179;54.350;10.102;2022-10-31T15:01:57;16.40;99.90
6293;DHT22;3179;54.350;10.102;2022-10-31T15:04:27;16.40;99.90
6293;DHT22;3179;54.350;10.102;2022-10-31T15:07:00;16.40;99.90
6293;DHT22;3179;54.350;10.102;2022-10-31T15:09:29;16.40;99.90
6293;DHT22;3179;54.350;10.102;2022-10-31T15:11:58;16.30;99.90
6293;DHT22;3179;54.350;10.102;2022-10-31T15:14:27;16.30;99.90
6293;DHT22;3179;54.350;10.102;2022-10-31T15:16:58;16.30;99.90
6293;DHT22;3179;54.350;10.102;2022-10-31T15:19:27;16.20;99.90
6293;DHT22;3179;54.350;10.102;2022-10-31T15:21:56;16.20;99.90
6293;DHT22;3179;54.350;10.102;2022-10-31T15:24:32;16.20;99.90
6293;DHT22;3179;54.350;10.102;2022-10-31T15:26:59;16.20;99.90
6293;DHT22;3179;54.350;10.102;2022-10-31T15:29:27;16.10;99.90
6293;DHT22;3179;54.350;10.102;2022-10-31T15:31:57;16.10;99.90
6293;DHT22;3179;54.350;10.102;2022-10-31T15:34:29;16.10;99.90
6293;DHT22;3179;54.350;10.102;2022-10-31T15:36:59;16.00;99.90
6293;DHT22;3179;54.350;10.102;2022-10-31T15:39:26;16.00;99.90
6293;DHT22;3179;54.350;10.102;2022-10-31T15:41:56;16.00;99.90
6293;DHT22;3179;54.350;10.102;2022-10-31T15:44:26;16.00;99.90
6293;DHT22;3179;54.350;10.102;2022-10-31T15:46:58;16.00;99.90
6293;DHT22;3179;54.350;10.102;2022-10-31T15:49:34;16.00;99.90
6293;DHT22;3179;54.350;10.102;2022-10-31T15:52:11;16.00;99.90
6293;DHT22;3179;54.350;10.102;2022-10-31T15:54:47;15.90;99.90
6293;DHT22;3179;54.350;10.102;2022-10-31T15:57:14;15.90;99.90
6293;DHT22;3179;54.350;10.102;2022-10-31T15:59:45;15.90;99.90
6293;DHT22;3179;54.350;10.102;2022-10-31T16:02:17;15.90;99.90
6293;DHT22;3179;54.350;10.102;2022-10-31T16:04:49;15.90;99.90
6293;DHT22;3179;54.350;10.102;2022-10-31T16:07:18;15.90;99.90
6293;DHT22;3179;54.350;10.102;2022-10-31T16:09:50;15.90;99.90
6293;DHT22;3179;54.350;10.102;2022-10-31T16:12:17;15.90;99.90
6293;DHT22;3179;54.350;10.102;2022-10-31T16:14:44;15.90;99.90
6293;DHT22;3179;54.350;10.102;2022-10-31T16:17:14;15.80;99.90
6293;DHT22;3179;54.350;10.102;2022-10-31T16:19:48;15.90;99.90
6293;DHT22;3179;54.350;10.102;2022-10-31T16:22:20;15.80;99.90
6293;DHT22;3179;54.350;10.102;2022-10-31T16:24:50;15.80;99.90
6293;DHT22;3179;54.350;10.102;2022-10-31T16:27:19;15.80;99.90